createdAt,value
2023-03-23T16:00:33.040Z,2.20
2023-03-23T16:05:42.883Z,2.40
2023-03-23T16:10:46.149Z,2.40
2023-03-23T16:15:53.704Z,2.60
2023-03-23T16:20:57.127Z,2.55
2023-03-23T16:26:00.737Z,2.53
2023-03-23T16:31:05.523Z,2.53
2023-03-23T16:36:10.031Z,2.15
2023-03-23T16:41:13.269Z,2.85
2023-03-23T16:46:17.879Z,2.00
2023-03-23T16:51:21.296Z,1.95
2023-03-23T16:56:24.954Z,2.15
2023-03-23T17:01:29.633Z,2.17
2023-03-23T17:06:32.822Z,2.42
2023-03-23T17:11:38.076Z,2.50
2023-03-23T17:16:42.642Z,2.23
2023-03-23T17:21:46.053Z,1.90
2023-03-23T17:26:50.425Z,2.27
2023-03-23T17:31:57.504Z,2.07
2023-03-23T17:37:00.721Z,2.20
2023-03-23T17:42:06.190Z,2.70
2023-03-23T17:47:11.110Z,3.03
2023-03-23T17:52:14.667Z,2.43
2023-03-23T17:57:20.314Z,3.40
2023-03-23T18:02:27.574Z,2.20
2023-03-23T18:07:31.560Z,2.50
2023-03-23T18:12:34.657Z,2.63
2023-03-23T18:17:39.595Z,2.60
2023-03-23T18:22:42.891Z,2.73
2023-03-23T18:27:46.345Z,2.20
2023-03-23T18:32:51.962Z,2.13
2023-03-23T18:37:55.090Z,2.53
2023-03-23T18:42:58.618Z,2.93
2023-03-23T18:48:04.008Z,2.80
2023-03-23T18:53:07.476Z,2.43
2023-03-23T18:58:10.704Z,2.83
2023-03-23T19:03:17.074Z,2.60
2023-03-23T19:08:23.571Z,2.97
2023-03-23T19:13:27.340Z,2.90
2023-03-23T19:18:32.294Z,3.60
2023-03-23T19:23:35.718Z,3.23
2023-03-23T19:33:46.951Z,3.10
2023-03-23T19:38:51.998Z,3.23
2023-03-23T19:43:55.554Z,3.20
2023-03-23T19:49:00.847Z,3.00
2023-03-23T19:54:06.507Z,4.13
2023-03-23T19:59:10.787Z,3.47
2023-03-23T20:04:16.109Z,3.30
2023-03-23T20:09:22.068Z,2.83
2023-03-23T20:14:26.550Z,3.20
2023-03-23T20:19:31.295Z,3.07
2023-03-23T20:24:34.704Z,3.03
2023-03-23T20:29:37.958Z,3.57
2023-03-23T20:34:43.782Z,2.87
2023-03-23T20:39:47.982Z,3.70
2023-03-23T20:44:52.506Z,3.53
2023-03-23T20:49:57.156Z,3.10
2023-03-23T20:55:00.979Z,3.13
2023-03-23T21:00:06.937Z,3.93
2023-03-23T21:05:11.784Z,3.33
2023-03-23T21:10:14.952Z,3.20
2023-03-23T21:15:18.193Z,3.63
2023-03-23T21:20:24.149Z,3.50
2023-03-23T21:25:33.862Z,3.40
2023-03-23T21:30:42.088Z,3.10
2023-03-23T21:35:52.768Z,3.97
2023-03-23T21:40:57.828Z,2.60
2023-03-23T21:46:03.094Z,2.50
2023-03-23T21:51:09.265Z,2.67
2023-03-23T21:56:14.614Z,2.67
2023-03-23T22:01:18.128Z,2.23
2023-03-23T22:06:26.901Z,1.80
2023-03-23T22:11:32.966Z,2.50
2023-03-23T22:16:37.008Z,2.77
2023-03-23T22:21:41.886Z,2.23
2023-03-23T22:26:45.216Z,2.97
2023-03-23T22:31:51.175Z,2.53
2023-03-23T22:36:56.415Z,2.77
2023-03-23T22:41:59.537Z,2.40
2023-03-23T22:47:02.683Z,2.03
2023-03-23T22:52:07.523Z,2.00
2023-03-23T22:57:10.888Z,2.50
2023-03-23T23:02:14.147Z,2.43
2023-03-23T23:07:18.984Z,2.27
2023-03-23T23:12:22.659Z,2.20
2023-03-23T23:17:26.849Z,2.30
2023-03-23T23:22:31.579Z,2.50
2023-03-23T23:27:35.685Z,2.23
2023-03-23T23:32:42.002Z,2.70
2023-03-23T23:37:47.618Z,2.53
2023-03-23T23:42:52.737Z,2.10
2023-03-23T23:47:56.577Z,2.13
2023-03-23T23:53:04.176Z,2.10
2023-03-23T23:58:07.320Z,2.80
